Minot International Airport
KMOT : rendu visible

Aérodrome :











RETROUVEZ-NOUS SUR...

 
LOGIN :

S'inscrire | Disclaimer

   EN    FR    IT 

 









Légende :    VFR   VFR Marginal   IFR   IFR Intensif   IFR Très Intensif
Visi : 
Plafond : 
>= 8 km
>= 3000ft
5 à 8 km
1000 à 3000 ft
1500m à 5 km
500 à 1000 ft
800 à 1500m
200 à 500 ft
< 800m
< 200 ft
Symboles :   Orages  Brouillard  Fortes neiges  Fortes précipitations  Vent > 20 kt






- Altitude de l'aérodrome : 1716 ft
- Code IATA : MOT


KMOT - Minot International

DERNIER METAR :
  • 181754Z 27024G30KT 10SM CLR M22/M27 A3022 RMK AO2 PK WND 27039/1656 SLP285 60000 T12171267 11211 21228 51017 $

METARs EXPIRÉS :
  • 181654Z 28027G38KT 10SM CLR M22/M27 A3021 RMK AO2 PK WND 27039/1603 SLP283 DRSN T12221267 $
  • 181554Z 28026G34KT 10SM CLR M23/M27 A3019 RMK AO2 PK WND 27037/1530 UPB16E25B32E38 SLP276 DRSN P0000 T12281272 $

TAF KMOT
Valide du 18 à 18h jusqu'au 19 à 18h UTC


181737Z 1818/1918 28026G37KT P6SM SKC
FM182300 29019G27KT P6SM SKC
FM190500 29012G18KT P6SM SKC
FM191000 30010KT P6SM SKC



MET'MAP, la Météo Aéronautique d'un coup d'oeil ! - Copyright ORBIFLY Décembre 2007 - Disclaimer

ORBIFLY MET'MAP TEAM :

Programmation & Développement : Alexandra Zaïnal
Sur une idée originale de : Baudouin d'Aumeries
Assistance à la programmation : Marc-Olivier Méhu
Soutien technique & logistique : Manuel Goepfert

Contact : metmap@orbifly.com




SOURCES & CREDITS :

   NOAA       Earth
Advisory